Time;durP1;ratioP1;P1;durP2;ratioP2;P2;SDS_P1;SDS_P2;PMS_P1;PMS_P2;Temp;Humidity;BMP_temperature;BMP_pressure;BME280_temperature;BME280_humidity;BME280_pressure;Samples;Min_cycle;Max_cycle;Signal;HPM_P1;HPM_P2
2022/09/28 00:02:13;;;;;;;1.23;0.65;;;17.30;55.90;;;;;;5067976;28;45373;-74
2022/09/28 00:04:40;;;;;;;0.50;0.50;;;17.20;55.80;;;;;;5067377;28;46980;-74
2022/09/28 00:07:07;;;;;;;1.20;0.70;;;17.30;55.90;;;;;;5066967;28;45144;-74
2022/09/28 00:09:33;;;;;;;1.25;0.68;;;17.30;55.90;;;;;;5067146;28;45260;-74
2022/09/28 00:12:01;;;;;;;0.80;0.63;;;17.30;56.00;;;;;;5067039;28;45300;-74
2022/09/28 00:14:28;;;;;;;0.80;0.60;;;17.30;56.00;;;;;;5067062;28;45293;-75
2022/09/28 00:16:55;;;;;;;0.63;0.60;;;17.30;55.90;;;;;;5067047;28;45884;-74
2022/09/28 00:19:23;;;;;;;1.02;0.93;;;17.30;55.90;;;;;;5067210;28;45194;-74
2022/09/28 00:21:50;;;;;;;0.98;0.60;;;17.20;55.80;;;;;;5067436;28;45328;-74
2022/09/28 00:24:17;;;;;;;0.90;0.60;;;17.20;55.90;;;;;;5066543;28;48326;-74
2022/09/28 00:26:46;;;;;;;0.57;0.57;;;17.20;56.50;;;;;;5066796;28;45237;-74
2022/09/28 00:29:16;;;;;;;0.60;0.60;;;17.20;55.80;;;;;;5066971;28;45556;-74
2022/09/28 00:31:43;;;;;;;1.23;0.57;;;17.30;55.90;;;;;;5067669;28;45239;-74
2022/09/28 00:34:10;;;;;;;0.63;0.63;;;17.30;55.90;;;;;;5066753;28;45241;-74
2022/09/28 00:36:38;;;;;;;0.70;0.70;;;17.20;55.80;;;;;;5066632;28;45230;-74
2022/09/28 00:39:06;;;;;;;2.47;0.85;;;17.20;55.80;;;;;;5066874;28;45257;-75
2022/09/28 00:41:32;;;;;;;1.95;0.93;;;17.20;55.80;;;;;;5067038;28;45455;-74
2022/09/28 00:44:35;;;;;;;0.77;0.77;;;17.20;55.80;;;;;;5066651;28;46589;-74
2022/09/28 00:47:04;;;;;;;1.08;0.65;;;17.20;55.90;;;;;;5066885;28;45302;-74
2022/09/28 00:49:32;;;;;;;0.60;0.60;;;17.20;55.80;;;;;;5066794;28;45245;-74
2022/09/28 00:52:01;;;;;;;1.52;0.70;;;17.20;55.80;;;;;;5066790;28;45266;-74
2022/09/28 00:54:28;;;;;;;1.00;0.63;;;17.20;55.80;;;;;;5066575;28;46660;-74
2022/09/28 00:56:55;;;;;;;0.70;0.70;;;17.20;55.80;;;;;;5067094;28;45189;-74
2022/09/28 00:59:23;;;;;;;0.98;0.55;;;17.20;55.90;;;;;;5066549;28;45173;-74
2022/09/28 01:01:50;;;;;;;0.63;0.50;;;17.20;55.90;;;;;;5067031;28;45415;-74
2022/09/28 01:04:17;;;;;;;0.80;0.80;;;17.20;55.90;;;;;;5066517;28;45273;-75
2022/09/28 01:06:44;;;;;;;0.82;0.77;;;17.20;55.80;;;;;;5066083;28;45126;-74
2022/09/28 01:09:12;;;;;;;0.45;0.45;;;17.20;55.80;;;;;;5066437;28;45238;-74
2022/09/28 01:11:39;;;;;;;1.80;0.90;;;17.20;55.80;;;;;;5078759;28;45417;-74
2022/09/28 01:14:06;;;;;;;0.85;0.65;;;17.20;55.80;;;;;;5086587;28;45310;-74
2022/09/28 01:16:36;;;;;;;0.65;0.60;;;17.20;55.80;;;;;;5086467;28;45342;-74
2022/09/28 01:19:07;;;;;;;0.77;0.65;;;17.20;55.80;;;;;;5086595;28;45262;-74
2022/09/28 01:21:37;;;;;;;1.45;0.88;;;17.20;55.80;;;;;;5086778;28;45396;-74
2022/09/28 01:24:13;;;;;;;0.50;0.50;;;17.20;55.80;;;;;;5086471;28;47613;-74
2022/09/28 01:27:07;;;;;;;0.70;0.68;;;17.20;55.80;;;;;;5086197;28;45281;-74
2022/09/28 01:29:39;;;;;;;0.70;0.70;;;17.20;55.70;;;;;;5086436;28;45253;-74
2022/09/28 01:32:14;;;;;;;0.40;0.35;;;17.20;55.70;;;;;;5086863;28;45453;-74
2022/09/28 01:34:43;;;;;;;0.50;0.50;;;17.20;55.80;;;;;;5086074;28;45388;-74
2022/09/28 01:37:11;;;;;;;1.33;0.70;;;17.10;55.70;;;;;;5067097;28;45328;-74
2022/09/28 01:39:39;;;;;;;1.63;0.65;;;17.10;55.70;;;;;;5088825;28;45340;-74
2022/09/28 01:42:09;;;;;;;0.60;0.60;;;17.20;55.70;;;;;;5090455;28;45122;-74
2022/09/28 01:44:38;;;;;;;1.35;0.70;;;17.20;55.70;;;;;;5089879;28;46640;-74
2022/09/28 01:47:07;;;;;;;0.70;0.70;;;17.20;55.70;;;;;;5089829;28;45150;-74
2022/09/28 01:49:35;;;;;;;0.82;0.52;;;17.20;55.70;;;;;;5089946;28;45278;-74
2022/09/28 01:52:03;;;;;;;0.73;0.50;;;17.20;55.60;;;;;;5090064;28;45364;-74
2022/09/28 01:54:32;;;;;;;0.60;0.57;;;17.20;55.60;;;;;;5089479;28;45189;-74
2022/09/28 01:57:00;;;;;;;1.30;0.77;;;17.20;55.60;;;;;;5089735;28;45245;-74
2022/09/28 01:59:29;;;;;;;0.60;0.60;;;17.20;55.60;;;;;;5089785;28;45312;-74
2022/09/28 02:01:58;;;;;;;0.75;0.57;;;17.20;55.50;;;;;;5090008;28;45191;-74
2022/09/28 02:04:26;;;;;;;0.60;0.60;;;17.20;55.50;;;;;;5089413;28;46393;-74
2022/09/28 02:06:54;;;;;;;1.70;0.70;;;17.20;55.50;;;;;;5089704;28;45314;-74
2022/09/28 02:09:22;;;;;;;0.65;0.50;;;17.10;55.40;;;;;;5089571;28;45175;-74
2022/09/28 02:11:50;;;;;;;0.40;0.30;;;17.20;55.50;;;;;;5089380;28;45183;-74
2022/09/28 02:14:18;;;;;;;0.70;0.70;;;17.20;55.50;;;;;;5089053;28;47340;-74
2022/09/28 02:16:48;;;;;;;1.58;0.70;;;17.20;55.50;;;;;;5089326;28;45195;-74
2022/09/28 02:19:16;;;;;;;0.73;0.52;;;17.10;55.40;;;;;;5089540;28;45281;-74
2022/09/28 02:21:45;;;;;;;0.43;0.40;;;17.20;55.50;;;;;;5089438;28;45354;-75
2022/09/28 02:24:17;;;;;;;0.43;0.40;;;17.10;55.40;;;;;;5089100;28;47655;-74
2022/09/28 02:26:44;;;;;;;0.40;0.38;;;17.10;55.40;;;;;;5089700;28;45312;-74
2022/09/28 02:29:11;;;;;;;0.40;0.40;;;17.10;55.50;;;;;;5089561;28;45245;-74
2022/09/28 02:31:38;;;;;;;1.48;0.80;;;17.10;55.40;;;;;;5089730;28;45333;-74
2022/09/28 02:34:06;;;;;;;0.57;0.57;;;17.10;55.40;;;;;;5089091;28;45540;-74
2022/09/28 02:36:33;;;;;;;0.75;0.75;;;17.10;55.50;;;;;;5074919;28;45269;-75
2022/09/28 02:39:01;;;;;;;0.52;0.50;;;17.10;55.40;;;;;;5083070;28;45352;-74
2022/09/28 02:41:35;;;;;;;0.57;0.50;;;17.10;55.40;;;;;;5089791;28;45202;-74
2022/09/28 02:44:07;;;;;;;0.75;0.60;;;17.10;55.40;;;;;;5089421;28;45197;-74
2022/09/28 02:46:38;;;;;;;1.10;0.70;;;17.10;55.40;;;;;;5089106;28;45319;-74
2022/09/28 02:49:12;;;;;;;0.68;0.35;;;17.10;55.40;;;;;;5089110;27;45353;-74
2022/09/28 02:51:42;;;;;;;0.70;0.52;;;17.10;55.40;;;;;;5089351;28;45447;-74
2022/09/28 02:54:21;;;;;;;0.70;0.70;;;17.10;55.40;;;;;;5088671;28;46507;-74
2022/09/28 02:56:56;;;;;;;0.30;0.30;;;17.10;55.40;;;;;;5088806;28;45142;-74
2022/09/28 02:59:33;;;;;;;0.50;0.50;;;17.10;55.40;;;;;;5089030;28;45188;-74
2022/09/28 03:02:02;;;;;;;0.47;0.45;;;17.00;55.40;;;;;;5089216;28;45170;-74
2022/09/28 03:04:35;;;;;;;0.50;0.50;;;17.10;55.40;;;;;;5088471;28;45324;-74
2022/09/28 03:07:05;;;;;;;0.50;0.50;;;17.10;55.30;;;;;;5088571;28;45245;-74
2022/09/28 03:09:33;;;;;;;0.50;0.50;;;17.10;55.30;;;;;;5088745;28;44719;-74
2022/09/28 03:12:03;;;;;;;0.60;0.40;;;17.00;55.30;;;;;;5088456;28;45287;-74
2022/09/28 03:14:30;;;;;;;0.98;0.50;;;17.00;55.30;;;;;;5088352;27;46175;-74
2022/09/28 03:16:56;;;;;;;0.90;0.47;;;17.00;55.30;;;;;;5088507;28;45196;-74
2022/09/28 03:19:24;;;;;;;0.75;0.35;;;17.00;55.40;;;;;;5088646;28;45153;-74
2022/09/28 03:21:53;;;;;;;0.40;0.40;;;17.00;55.40;;;;;;5088009;28;45257;-74
2022/09/28 03:24:19;;;;;;;1.83;0.63;;;17.10;55.40;;;;;;5088879;28;45318;-74
2022/09/28 03:26:46;;;;;;;0.60;0.50;;;17.00;55.40;;;;;;5088553;28;45204;-74
2022/09/28 03:29:13;;;;;;;0.77;0.50;;;17.00;55.40;;;;;;5088423;28;45285;-74
2022/09/28 03:31:40;;;;;;;0.82;0.57;;;17.00;55.40;;;;;;5088700;28;45428;-74
2022/09/28 03:34:07;;;;;;;0.63;0.43;;;17.00;55.40;;;;;;5088129;28;46655;-74
2022/09/28 03:36:34;;;;;;;1.58;0.80;;;17.10;55.40;;;;;;5073822;28;45325;-74
2022/09/28 03:39:02;;;;;;;0.80;0.50;;;17.00;55.40;;;;;;5082093;28;45216;-74
2022/09/28 03:41:29;;;;;;;0.45;0.45;;;17.00;55.40;;;;;;5085897;28;45245;-74
2022/09/28 03:43:55;;;;;;;0.90;0.60;;;17.00;55.40;;;;;;5088054;28;46695;-75
2022/09/28 03:46:22;;;;;;;0.50;0.50;;;17.00;55.30;;;;;;5088289;28;45268;-74
2022/09/28 03:48:49;;;;;;;0.47;0.47;;;17.00;55.30;;;;;;5088159;28;45294;-74
2022/09/28 03:51:16;;;;;;;0.40;0.40;;;17.00;55.40;;;;;;5088319;28;45251;-74
2022/09/28 03:53:43;;;;;;;1.42;0.60;;;17.00;55.40;;;;;;5088157;28;45797;-74
2022/09/28 03:56:13;;;;;;;0.40;0.40;;;17.00;55.40;;;;;;5087786;28;45221;-75
2022/09/28 03:58:39;;;;;;;0.68;0.50;;;17.00;55.40;;;;;;5087876;28;45353;-74
2022/09/28 04:01:07;;;;;;;1.33;0.50;;;17.00;55.40;;;;;;5087745;27;45198;-74
2022/09/28 04:03:34;;;;;;;0.77;0.50;;;17.00;55.40;;;;;;5087501;28;45210;-74
2022/09/28 04:06:01;;;;;;;0.55;0.52;;;17.00;55.40;;;;;;5090633;28;45382;-74
2022/09/28 04:08:28;;;;;;;0.40;0.40;;;17.00;55.40;;;;;;5088373;28;45284;-74
2022/09/28 04:10:56;;;;;;;0.75;0.50;;;17.00;55.40;;;;;;5089125;28;45245;-74
2022/09/28 04:13:24;;;;;;;0.60;0.50;;;17.00;55.30;;;;;;5087746;28;45249;-74
2022/09/28 04:15:54;;;;;;;1.17;0.50;;;17.00;55.40;;;;;;5087615;28;45342;-74
2022/09/28 04:18:21;;;;;;;1.00;0.70;;;17.00;55.40;;;;;;5087913;28;45244;-74
2022/09/28 04:20:48;;;;;;;0.43;0.43;;;17.00;55.40;;;;;;5087767;28;45198;-75
2022/09/28 04:23:15;;;;;;;1.30;0.43;;;17.00;55.40;;;;;;5087439;28;46378;-74
2022/09/28 04:25:44;;;;;;;0.82;0.40;;;17.00;55.50;;;;;;5087506;28;45388;-74
2022/09/28 04:30:57;;;;;;;0.63;0.30;;;16.90;55.40;;;;;;5085430;28;45289;-74
2022/09/28 04:33:23;;;;;;;0.82;0.40;;;17.00;55.40;;;;;;5087465;28;46417;-75
2022/09/28 04:35:50;;;;;;;0.52;0.52;;;17.00;55.50;;;;;;5079019;28;45193;-75
2022/09/28 04:38:17;;;;;;;0.52;0.32;;;17.00;55.40;;;;;;5067278;28;45357;-74
2022/09/28 04:40:44;;;;;;;0.28;0.28;;;17.00;55.40;;;;;;5067300;28;45377;-74
2022/09/28 04:43:10;;;;;;;0.30;0.30;;;16.90;55.40;;;;;;5067254;28;45367;-75
2022/09/28 04:45:37;;;;;;;0.50;0.45;;;17.00;55.40;;;;;;5066904;28;45182;-74
2022/09/28 04:48:07;;;;;;;1.02;0.60;;;17.00;55.40;;;;;;5066944;28;45120;-74
2022/09/28 04:50:34;;;;;;;0.47;0.43;;;17.00;56.00;;;;;;5066995;28;45410;-74
2022/09/28 04:53:01;;;;;;;0.55;0.30;;;16.90;55.30;;;;;;5064144;28;45281;-74
2022/09/28 04:55:31;;;;;;;0.20;0.20;;;17.00;55.40;;;;;;5067325;28;45155;-74
2022/09/28 04:58:01;;;;;;;0.63;0.50;;;17.00;55.40;;;;;;5066212;28;45436;-75
2022/09/28 05:00:28;;;;;;;0.75;0.40;;;16.90;55.30;;;;;;5066526;28;45392;-75
2022/09/28 05:02:55;;;;;;;0.68;0.40;;;17.00;55.30;;;;;;5066632;28;45499;-74
2022/09/28 05:05:23;;;;;;;0.88;0.40;;;17.00;55.30;;;;;;5066447;28;45318;-75
2022/09/28 05:07:50;;;;;;;0.52;0.43;;;17.00;55.30;;;;;;5066693;28;45284;-74
2022/09/28 05:10:17;;;;;;;0.77;0.50;;;17.00;55.30;;;;;;5066315;28;45306;-74
2022/09/28 05:12:44;;;;;;;0.20;0.20;;;17.00;55.30;;;;;;5065110;28;46674;-74
2022/09/28 05:15:11;;;;;;;0.35;0.30;;;17.00;55.30;;;;;;5066625;28;45254;-75
2022/09/28 05:17:38;;;;;;;0.75;0.30;;;16.90;55.20;;;;;;5066468;28;45536;-74
2022/09/28 05:20:05;;;;;;;0.30;0.30;;;17.00;55.20;;;;;;5066607;28;45374;-75
2022/09/28 05:22:34;;;;;;;0.40;0.30;;;16.90;55.20;;;;;;5066348;28;46419;-74
2022/09/28 05:25:01;;;;;;;0.28;0.28;;;17.00;55.20;;;;;;5066513;28;45243;-74
2022/09/28 05:27:28;;;;;;;0.63;0.60;;;17.00;55.20;;;;;;5066398;28;45300;-74
2022/09/28 05:29:55;;;;;;;0.30;0.30;;;17.00;55.20;;;;;;5066617;28;45377;-74
2022/09/28 05:32:22;;;;;;;0.30;0.30;;;17.00;55.20;;;;;;5066017;28;46659;-74
2022/09/28 05:34:48;;;;;;;0.38;0.38;;;17.00;55.10;;;;;;5066093;28;45195;-75
2022/09/28 05:37:15;;;;;;;0.52;0.30;;;17.00;55.70;;;;;;5066458;28;45170;-75
2022/09/28 05:39:43;;;;;;;0.55;0.40;;;17.00;55.20;;;;;;5066841;28;45211;-75
2022/09/28 05:42:10;;;;;;;0.20;0.20;;;17.00;55.10;;;;;;5065781;28;47650;-74
2022/09/28 05:44:38;;;;;;;0.73;0.40;;;17.00;55.10;;;;;;5065578;28;45333;-74
2022/09/28 05:47:04;;;;;;;0.32;0.25;;;16.90;55.10;;;;;;5066363;28;45190;-74
2022/09/28 05:49:31;;;;;;;0.40;0.40;;;17.00;55.10;;;;;;5066383;28;45174;-75
2022/09/28 05:51:58;;;;;;;0.73;0.30;;;17.00;55.10;;;;;;5066062;28;46857;-74
2022/09/28 05:54:25;;;;;;;0.40;0.30;;;17.00;55.10;;;;;;5066092;28;45258;-74
2022/09/28 05:56:53;;;;;;;0.47;0.30;;;17.00;55.00;;;;;;5066144;28;45236;-75
2022/09/28 05:59:20;;;;;;;0.52;0.30;;;17.00;55.00;;;;;;5066511;28;45338;-74
2022/09/28 06:01:47;;;;;;;0.30;0.30;;;17.00;55.00;;;;;;5065728;28;45520;-74
2022/09/28 06:04:14;;;;;;;0.17;0.17;;;17.00;55.10;;;;;;5065825;28;45356;-75
2022/09/28 06:06:41;;;;;;;0.57;0.45;;;16.90;55.00;;;;;;5065935;28;45375;-74
2022/09/28 06:09:08;;;;;;;0.35;0.35;;;17.00;55.00;;;;;;5066236;28;45210;-75
2022/09/28 06:11:35;;;;;;;0.30;0.30;;;16.90;55.00;;;;;;5065415;28;46692;-75
2022/09/28 06:14:04;;;;;;;0.38;0.30;;;17.00;55.10;;;;;;5065850;28;45194;-74
2022/09/28 06:16:30;;;;;;;0.40;0.40;;;17.00;55.10;;;;;;5065881;28;45312;-75
2022/09/28 06:18:57;;;;;;;0.30;0.30;;;17.00;55.20;;;;;;5066094;28;45275;-75
2022/09/28 06:21:24;;;;;;;0.30;0.30;;;16.90;55.20;;;;;;5065551;28;45153;-75
2022/09/28 06:23:51;;;;;;;0.25;0.25;;;16.90;55.30;;;;;;5066300;28;45190;-74
2022/09/28 06:26:18;;;;;;;0.80;0.50;;;16.90;55.30;;;;;;5068639;28;45191;-74
2022/09/28 06:28:44;;;;;;;0.20;0.20;;;16.90;55.30;;;;;;5069246;28;45425;-74
2022/09/28 06:31:13;;;;;;;0.40;0.30;;;16.90;55.40;;;;;;5068858;28;45386;-74
2022/09/28 06:33:40;;;;;;;0.30;0.30;;;16.90;56.00;;;;;;5069857;28;45307;-74
2022/09/28 06:36:08;;;;;;;0.20;0.20;;;16.90;55.50;;;;;;5068934;28;45246;-75
2022/09/28 06:38:35;;;;;;;0.80;0.30;;;16.80;55.40;;;;;;5069181;28;45432;-75
2022/09/28 06:41:02;;;;;;;0.40;0.40;;;16.80;55.40;;;;;;5068760;28;45284;-74
2022/09/28 06:43:28;;;;;;;0.30;0.30;;;16.80;55.50;;;;;;5069042;28;45427;-74
2022/09/28 06:45:55;;;;;;;0.20;0.20;;;16.80;55.50;;;;;;5069251;28;45269;-74
2022/09/28 06:48:23;;;;;;;0.20;0.20;;;16.80;55.50;;;;;;5069297;28;45198;-74
2022/09/28 06:50:52;;;;;;;0.60;0.32;;;16.80;55.50;;;;;;5068585;28;46670;-74
2022/09/28 06:53:21;;;;;;;0.28;0.28;;;16.80;55.50;;;;;;5068696;28;45220;-74
2022/09/28 06:55:48;;;;;;;0.20;0.20;;;16.80;55.50;;;;;;5068625;28;45277;-74
2022/09/28 06:58:17;;;;;;;0.20;0.20;;;16.80;55.60;;;;;;5066184;28;45326;-74
2022/09/28 07:00:43;;;;;;;0.40;0.40;;;16.80;55.50;;;;;;5068619;28;47012;-74
2022/09/28 07:03:11;;;;;;;0.30;0.30;;;16.80;55.60;;;;;;5068746;28;45137;-74
2022/09/28 07:05:41;;;;;;;0.20;0.20;;;16.80;55.60;;;;;;5068951;28;45233;-74
2022/09/28 07:08:08;;;;;;;0.98;0.30;;;16.80;55.60;;;;;;5068888;28;45289;-75
2022/09/28 07:10:35;;;;;;;0.40;0.40;;;16.80;55.50;;;;;;5071411;28;45191;-75
2022/09/28 07:13:03;;;;;;;0.95;0.32;;;16.80;55.50;;;;;;5088111;28;45212;-74
2022/09/28 07:15:30;;;;;;;0.50;0.38;;;16.80;55.50;;;;;;5088950;28;45284;-75
2022/09/28 07:17:57;;;;;;;1.20;0.20;;;16.80;55.50;;;;;;5089185;28;45486;-75
2022/09/28 07:20:25;;;;;;;0.38;0.30;;;16.80;55.50;;;;;;5088904;28;46680;-75
2022/09/28 07:22:54;;;;;;;0.20;0.20;;;16.80;55.60;;;;;;5088713;28;45216;-75
2022/09/28 07:25:21;;;;;;;0.28;0.28;;;16.80;55.60;;;;;;5088784;28;45324;-75
2022/09/28 07:27:48;;;;;;;0.32;0.30;;;16.80;55.50;;;;;;5089047;28;45330;-75
2022/09/28 07:30:15;;;;;;;0.17;0.10;;;16.80;55.60;;;;;;5088463;28;47249;-75
2022/09/28 07:32:42;;;;;;;0.50;0.50;;;16.80;55.70;;;;;;5088463;28;45198;-75
2022/09/28 07:35:09;;;;;;;0.30;0.30;;;16.80;55.70;;;;;;5087957;27;45231;-75
2022/09/28 07:37:36;;;;;;;0.52;0.32;;;16.80;55.70;;;;;;5086077;28;45373;-75
2022/09/28 07:42:50;;;;;;;0.28;0.28;;;16.80;55.80;;;;;;5068232;28;45194;-75
2022/09/28 07:45:19;;;;;;;0.20;0.20;;;16.80;55.80;;;;;;5068063;28;45197;-75
2022/09/28 07:47:46;;;;;;;0.20;0.20;;;16.80;55.80;;;;;;5068088;28;45407;-75
2022/09/28 07:50:13;;;;;;;0.40;0.40;;;16.80;55.80;;;;;;5067760;28;45551;-75
2022/09/28 07:52:39;;;;;;;0.20;0.20;;;16.80;55.80;;;;;;5068016;28;45244;-75
2022/09/28 07:55:09;;;;;;;0.20;0.20;;;16.80;55.80;;;;;;5068268;28;45412;-75
2022/09/28 07:57:35;;;;;;;1.77;0.30;;;16.80;55.80;;;;;;5067828;28;45445;-75
2022/09/28 08:00:05;;;;;;;0.30;0.30;;;16.80;55.80;;;;;;5067676;28;47589;-75
2022/09/28 08:02:33;;;;;;;0.20;0.20;;;16.80;55.90;;;;;;5067629;28;45178;-74
2022/09/28 08:05:00;;;;;;;0.63;0.30;;;16.80;56.40;;;;;;5067259;28;45301;-75
2022/09/28 08:07:27;;;;;;;1.25;0.30;;;16.80;55.90;;;;;;5067117;28;45195;-75
2022/09/28 08:09:54;;;;;;;0.30;0.20;;;16.80;55.90;;;;;;5067448;28;45297;-75
2022/09/28 08:12:22;;;;;;;0.60;0.38;;;16.80;55.90;;;;;;5067113;28;45213;-75
2022/09/28 08:14:51;;;;;;;0.68;0.45;;;16.80;55.90;;;;;;5067500;28;45262;-75
2022/09/28 08:17:17;;;;;;;0.30;0.30;;;16.80;55.90;;;;;;5067762;28;45296;-75
2022/09/28 08:22:31;;;;;;;3.50;0.60;;;16.80;56.20;;;;;;5065026;28;45257;-74
2022/09/28 08:24:57;;;;;;;4.15;2.88;;;16.80;59.10;;;;;;5067324;28;45208;-76
2022/09/28 08:27:26;;;;;;;24.90;21.48;;;16.90;58.50;;;;;;5067823;28;45186;-75
2022/09/28 08:29:53;;;;;;;41.47;32.38;;;16.90;58.50;;;;;;5067430;28;46727;-75
2022/09/28 08:32:20;;;;;;;16.58;14.65;;;17.00;58.50;;;;;;5067196;28;45224;-75
2022/09/28 08:34:47;;;;;;;34.78;26.83;;;17.00;58.50;;;;;;5067109;28;45225;-73
2022/09/28 08:37:14;;;;;;;32.83;28.65;;;17.10;58.80;;;;;;5067566;28;45483;-75
2022/09/28 08:39:41;;;;;;;49.22;43.75;;;17.20;58.80;;;;;;5064639;28;46655;-73
2022/09/28 08:42:28;;;;;;;50.10;40.92;;;17.20;58.80;;;;;;5067082;28;45300;-75
2022/09/28 08:44:58;;;;;;;65.38;56.28;;;17.30;58.80;;;;;;5067296;28;45246;-72
2022/09/28 08:50:14;;;;;;;43.00;37.90;;;17.50;57.80;;;;;;5067139;28;45867;-72
2022/09/28 08:52:41;;;;;;;60.60;53.78;;;17.60;58.00;;;;;;5066736;28;45272;-75
2022/09/28 08:55:10;;;;;;;78.38;69.22;;;17.70;57.80;;;;;;5067212;28;45250;-74
2022/09/28 08:57:40;;;;;;;66.82;59.15;;;17.80;57.60;;;;;;5064726;28;45488;-74
2022/09/28 09:00:14;;;;;;;65.80;50.08;;;17.80;57.20;;;;;;5061639;28;47783;-74
2022/09/28 09:02:41;;;;;;;69.80;56.67;;;17.90;56.90;;;;;;5063405;28;45321;-75
2022/09/28 09:05:10;;;;;;;67.03;57.85;;;17.90;57.60;;;;;;5062932;28;45400;-73
2022/09/28 09:07:54;;;;;;;99.13;83.38;;;18.00;56.90;;;;;;5060353;28;45508;-74
2022/09/28 09:10:36;;;;;;;53.30;45.00;;;18.10;57.30;;;;;;5060951;28;45297;-76
2022/09/28 09:13:11;;;;;;;51.65;45.03;;;18.20;56.70;;;;;;5066837;28;45247;-74
2022/09/28 09:15:46;;;;;;;55.10;49.17;;;18.20;56.70;;;;;;5060515;28;45199;-75
2022/09/28 09:18:21;;;;;;;90.97;77.85;;;18.30;56.70;;;;;;5066896;28;45506;-75
2022/09/28 09:20:50;;;;;;;78.18;65.05;;;18.30;56.30;;;;;;5065680;28;46655;-74
2022/09/28 09:23:19;;;;;;;69.63;58.75;;;18.40;56.10;;;;;;5065999;28;45443;-74
2022/09/28 09:25:48;;;;;;;70.28;62.35;;;18.50;56.00;;;;;;5068399;28;45401;-75
2022/09/28 09:28:40;;;;;;;91.75;79.18;;;18.50;56.00;;;;;;5066826;28;45120;-74
2022/09/28 09:31:15;;;;;;;85.00;75.75;;;18.50;55.90;;;;;;5063728;28;46471;-73
2022/09/28 09:33:57;;;;;;;54.88;49.10;;;18.50;56.20;;;;;;5068466;28;45205;-75
2022/09/28 09:36:31;;;;;;;81.63;70.03;;;18.60;56.00;;;;;;5065615;28;45312;-74
2022/09/28 09:39:05;;;;;;;70.93;61.97;;;18.60;55.50;;;;;;5065118;28;45290;-73
2022/09/28 09:41:38;;;;;;;62.22;55.72;;;18.70;55.60;;;;;;5062614;28;46668;-76
2022/09/28 09:44:29;;;;;;;53.78;47.85;;;18.70;55.30;;;;;;5066199;28;45310;-74
2022/09/28 09:47:00;;;;;;;40.30;35.95;;;18.70;55.50;;;;;;5064135;28;45313;-74
2022/09/28 09:49:29;;;;;;;49.83;42.25;;;18.80;55.70;;;;;;5066767;28;45281;-75
2022/09/28 09:51:57;;;;;;;92.28;66.88;;;18.80;55.30;;;;;;5059589;28;45458;-75
2022/09/28 09:54:26;;;;;;;46.05;39.28;;;18.80;55.10;;;;;;5063510;28;45366;-73
2022/09/28 09:56:54;;;;;;;44.80;37.92;;;18.80;55.20;;;;;;5059005;28;45371;-73
2022/09/28 09:59:23;;;;;;;40.05;35.40;;;18.80;55.10;;;;;;5066091;28;45485;-75
2022/09/28 10:01:50;;;;;;;39.10;33.85;;;18.80;55.60;;;;;;5060715;28;45468;-75
2022/09/28 10:04:20;;;;;;;42.80;33.50;;;18.80;55.50;;;;;;5066940;28;45376;-75
2022/09/28 10:06:47;;;;;;;40.97;31.00;;;18.70;55.10;;;;;;5069735;28;45253;-74
2022/09/28 10:09:20;;;;;;;37.55;30.35;;;18.70;55.10;;;;;;5070198;28;45217;-74
2022/09/28 10:11:48;;;;;;;33.40;29.25;;;18.70;55.00;;;;;;5069136;28;45487;-74
2022/09/28 10:14:16;;;;;;;33.20;29.17;;;18.70;55.00;;;;;;5069492;28;45248;-74
2022/09/28 10:16:43;;;;;;;35.22;29.25;;;18.60;55.00;;;;;;5069395;28;45305;-74
2022/09/28 10:19:10;;;;;;;31.65;27.70;;;18.60;55.00;;;;;;5069859;28;45241;-74
2022/09/28 10:21:39;;;;;;;33.75;27.80;;;18.50;55.00;;;;;;5069389;28;46800;-76
2022/09/28 10:24:11;;;;;;;30.00;26.77;;;18.50;55.10;;;;;;5069471;28;45484;-73
2022/09/28 10:26:39;;;;;;;29.67;25.42;;;18.40;55.10;;;;;;5069148;28;45215;-74
2022/09/28 10:29:12;;;;;;;30.75;25.98;;;18.40;55.30;;;;;;5069431;28;45394;-74
2022/09/28 10:31:40;;;;;;;29.00;25.75;;;18.40;55.30;;;;;;5069057;28;45423;-74
2022/09/28 10:34:08;;;;;;;28.45;25.42;;;18.30;55.30;;;;;;5069347;28;45250;-74
2022/09/28 10:36:54;;;;;;;29.17;24.27;;;18.30;55.40;;;;;;5066637;28;45269;-74
2022/09/28 10:39:32;;;;;;;26.30;23.02;;;18.30;55.40;;;;;;5069700;28;45241;-74
2022/09/28 10:42:01;;;;;;;25.83;23.08;;;18.30;56.10;;;;;;5068665;28;46416;-75
2022/09/28 10:44:28;;;;;;;25.85;22.17;;;18.20;55.40;;;;;;5068966;28;45276;-74
2022/09/28 10:46:59;;;;;;;25.85;22.90;;;18.20;55.50;;;;;;5069549;28;45246;-74
2022/09/28 10:49:27;;;;;;;25.50;22.80;;;18.20;55.60;;;;;;5070346;28;45244;-74
2022/09/28 10:51:56;;;;;;;23.90;21.05;;;18.20;55.60;;;;;;5070966;28;46570;-74
2022/09/28 10:54:23;;;;;;;23.40;21.00;;;18.20;55.60;;;;;;5070232;28;45199;-75
2022/09/28 10:56:51;;;;;;;23.52;21.13;;;18.20;55.60;;;;;;5070896;28;45193;-75
2022/09/28 10:59:25;;;;;;;22.48;19.85;;;18.10;55.60;;;;;;5071188;28;45403;-75
2022/09/28 11:01:55;;;;;;;23.35;20.77;;;18.10;55.70;;;;;;5069739;28;46392;-75
2022/09/28 11:04:22;;;;;;;21.88;19.50;;;18.10;55.70;;;;;;5069397;28;45274;-75
2022/09/28 11:06:50;;;;;;;21.85;19.35;;;18.10;55.80;;;;;;5068784;28;45186;-75
2022/09/28 11:09:24;;;;;;;22.65;18.90;;;18.10;55.70;;;;;;5069063;28;45379;-75
2022/09/28 11:11:51;;;;;;;21.55;19.15;;;18.00;55.80;;;;;;5080986;28;45450;-76
2022/09/28 11:14:24;;;;;;;21.35;19.08;;;18.00;55.80;;;;;;5091729;28;45336;-76
2022/09/28 11:17:09;;;;;;;20.33;17.98;;;18.00;55.90;;;;;;5092901;28;45142;-76
2022/09/28 11:19:35;;;;;;;20.58;18.38;;;18.00;55.90;;;;;;5091761;28;45250;-75
2022/09/28 11:22:02;;;;;;;20.33;18.13;;;18.00;56.00;;;;;;5092246;28;46391;-77
2022/09/28 11:24:30;;;;;;;19.98;17.92;;;18.00;56.00;;;;;;5091963;28;45229;-75
2022/09/28 11:26:58;;;;;;;19.67;17.55;;;17.90;55.90;;;;;;5092778;28;45142;-75
2022/09/28 11:29:30;;;;;;;19.63;16.55;;;17.90;55.90;;;;;;5092771;28;45177;-76
2022/09/28 11:32:00;;;;;;;19.67;17.35;;;17.90;56.00;;;;;;5092154;28;45179;-76
2022/09/28 11:34:30;;;;;;;20.00;17.10;;;17.90;56.00;;;;;;5091194;28;45219;-74
2022/09/28 11:37:06;;;;;;;20.48;17.25;;;17.90;56.00;;;;;;5072254;28;45211;-76
2022/09/28 11:39:38;;;;;;;18.20;16.20;;;17.90;56.10;;;;;;5088345;28;45175;-75
2022/09/28 11:42:11;;;;;;;18.45;16.48;;;17.90;56.00;;;;;;5089583;28;45494;-74
2022/09/28 11:44:40;;;;;;;18.08;15.77;;;17.80;56.00;;;;;;5088986;28;45278;-74
2022/09/28 11:47:38;;;;;;;17.35;15.52;;;17.90;56.00;;;;;;5089555;28;45234;-75
2022/09/28 11:50:08;;;;;;;18.63;16.38;;;17.80;56.00;;;;;;5073309;28;45200;-74
2022/09/28 11:52:39;;;;;;;17.23;15.40;;;17.80;56.00;;;;;;5086631;28;45293;-74
2022/09/28 11:55:11;;;;;;;17.92;15.38;;;17.80;56.10;;;;;;5089050;28;45145;-74
2022/09/28 11:57:39;;;;;;;16.20;14.27;;;17.80;56.10;;;;;;5089140;28;45138;-74
2022/09/28 12:00:08;;;;;;;16.83;14.93;;;17.80;56.10;;;;;;5089268;28;45463;-75
2022/09/28 12:02:36;;;;;;;18.67;14.57;;;17.80;56.10;;;;;;5088868;28;45287;-75
2022/09/28 12:05:12;;;;;;;18.33;14.88;;;17.80;56.20;;;;;;5089007;28;45180;-75
2022/09/28 12:07:41;;;;;;;16.33;13.98;;;17.80;56.10;;;;;;5090686;28;45175;-74
2022/09/28 12:10:12;;;;;;;14.35;12.85;;;17.80;56.10;;;;;;5090015;28;45439;-74
2022/09/28 12:12:41;;;;;;;15.27;13.77;;;17.80;56.20;;;;;;5089692;28;46466;-74
2022/09/28 12:15:14;;;;;;;15.40;13.75;;;17.70;56.20;;;;;;5090715;28;45415;-74
2022/09/28 12:17:43;;;;;;;15.00;13.43;;;17.70;56.30;;;;;;5089698;28;45238;-76
2022/09/28 12:20:14;;;;;;;14.73;13.18;;;17.70;56.30;;;;;;5089434;28;45309;-74
2022/09/28 12:22:43;;;;;;;15.07;13.55;;;17.70;56.30;;;;;;5088011;27;47190;-74
2022/09/28 12:25:13;;;;;;;14.40;12.73;;;17.70;56.30;;;;;;5088597;28;45284;-75
2022/09/28 12:27:41;;;;;;;15.48;12.98;;;17.70;56.30;;;;;;5088810;28;45291;-74
2022/09/28 12:30:13;;;;;;;14.95;13.35;;;17.70;56.40;;;;;;5088460;28;45337;-74
2022/09/28 12:32:42;;;;;;;13.88;12.43;;;17.70;56.40;;;;;;5088035;28;45449;-74
2022/09/28 12:35:12;;;;;;;13.57;12.07;;;17.60;56.40;;;;;;5085606;28;45251;-74
2022/09/28 12:37:57;;;;;;;13.35;11.90;;;17.60;56.40;;;;;;5069894;28;45241;-74
2022/09/28 12:40:38;;;;;;;13.02;11.73;;;17.60;56.50;;;;;;5089282;28;45290;-74
2022/09/28 12:43:53;;;;;;;15.63;12.10;;;17.60;56.50;;;;;;5088393;28;45443;-74
2022/09/28 12:46:27;;;;;;;12.43;11.20;;;17.60;56.50;;;;;;5005700;28;45470;-76
2022/09/28 12:49:17;;;;;;;12.80;11.38;;;17.60;56.80;;;;;;5083147;28;45303;-76
2022/09/28 12:51:47;;;;;;;12.10;10.95;;;17.60;56.60;;;;;;5088230;28;45617;-75
2022/09/28 12:54:33;;;;;;;11.95;10.75;;;17.50;56.60;;;;;;5088066;28;45770;-76
2022/09/28 12:57:08;;;;;;;12.55;10.43;;;17.60;56.60;;;;;;5084429;28;45322;-75
2022/09/28 12:59:36;;;;;;;11.82;10.63;;;17.50;56.70;;;;;;5088250;28;45301;-74
2022/09/28 13:02:36;;;;;;;14.18;10.90;;;17.50;56.70;;;;;;5088288;28;45197;-75
2022/09/28 13:05:18;;;;;;;11.00;9.77;;;17.50;56.70;;;;;;5087908;28;45445;-76